createdAt,value
2018-01-05T18:48:23.851Z,48.00
2018-01-05T18:49:23.789Z,44.00
2018-01-05T18:50:40.627Z,44.00
2018-01-05T18:51:40.619Z,36.00
2018-01-05T18:53:33.870Z,384.00
2018-01-05T18:54:33.694Z,396.00
2018-01-05T18:56:26.676Z,404.00
2018-01-05T18:57:26.629Z,404.00
2018-01-05T18:59:19.468Z,404.00
2018-01-05T19:00:19.427Z,408.00
2018-01-05T19:02:12.660Z,404.00
2018-01-05T19:08:37.428Z,324.00
2018-01-05T19:09:37.344Z,324.00
2018-01-05T19:11:30.511Z,408.00
2018-01-05T19:12:30.445Z,408.00
2018-01-05T19:14:23.440Z,412.00
2018-01-05T19:15:23.387Z,408.00
2018-01-05T19:17:16.398Z,400.00
2018-01-05T19:18:58.189Z,16.00
2018-01-05T19:21:27.413Z,0.00
2018-01-05T19:22:27.384Z,4.00
2018-01-05T19:24:20.317Z,0.00
2018-01-05T19:25:20.297Z,0.00
2018-01-05T19:27:13.267Z,4.00
2018-01-05T19:28:13.218Z,4.00
2018-01-05T19:30:06.096Z,4.00
2018-01-05T19:31:06.044Z,4.00
2018-01-05T19:32:59.032Z,0.00
2018-01-05T19:33:58.995Z,4.00
2018-01-05T19:35:53.916Z,4.00
2018-01-05T19:36:51.945Z,4.00
2018-01-05T19:38:44.768Z,4.00
2018-01-05T19:39:44.761Z,0.00
2018-01-05T19:41:37.581Z,0.00
2018-01-05T19:42:37.546Z,0.00
2018-01-05T19:44:30.498Z,0.00
2018-01-05T19:45:30.481Z,0.00
2018-01-05T19:47:23.479Z,0.00
2018-01-05T19:48:23.423Z,0.00
2018-01-05T19:50:16.646Z,0.00
2018-01-05T19:51:16.498Z,0.00
2018-01-05T19:53:09.483Z,0.00
2018-01-05T19:54:09.465Z,0.00
2018-01-05T19:56:02.813Z,0.00
2018-01-05T19:57:02.674Z,0.00
2018-01-05T19:58:55.649Z,0.00
2018-01-05T19:59:55.599Z,0.00
2018-01-05T20:01:48.597Z,0.00
2018-01-05T20:02:48.526Z,0.00
2018-01-05T20:04:41.684Z,0.00
2018-01-05T20:05:41.663Z,0.00
2018-01-05T20:07:34.664Z,0.00
2018-01-05T20:08:34.612Z,0.00
2018-01-05T20:10:27.418Z,0.00
2018-01-05T20:11:27.384Z,0.00
2018-01-05T20:13:20.561Z,0.00
2018-01-05T20:14:20.499Z,0.00
2018-01-05T20:16:13.483Z,0.00
2018-01-05T20:17:13.439Z,0.00
2018-01-05T20:19:06.460Z,0.00
2018-01-05T20:20:06.389Z,0.00
2018-01-05T20:21:59.223Z,0.00
2018-01-05T20:22:59.189Z,0.00
2018-01-05T20:24:52.190Z,0.00
2018-01-05T20:25:52.117Z,0.00
2018-01-05T20:27:45.078Z,0.00
2018-01-05T20:28:45.064Z,0.00
2018-01-05T20:30:38.306Z,0.00
2018-01-05T20:31:38.206Z,0.00
2018-01-05T20:33:31.178Z,0.00
2018-01-05T20:34:31.113Z,0.00
2018-01-05T20:36:24.090Z,0.00
2018-01-05T20:37:24.055Z,0.00
2018-01-05T20:39:16.910Z,0.00
2018-01-05T20:40:16.855Z,0.00
2018-01-05T20:42:09.806Z,0.00
2018-01-05T20:43:09.760Z,0.00
2018-01-05T20:45:02.742Z,0.00
2018-01-05T20:46:02.704Z,0.00
2018-01-05T20:47:55.522Z,0.00
2018-01-05T20:48:55.496Z,0.00
2018-01-05T20:50:48.614Z,0.00
2018-01-05T20:51:48.433Z,0.00
2018-01-05T20:53:41.399Z,0.00
2018-01-05T20:54:41.393Z,0.00
2018-01-05T20:56:34.410Z,0.00
2018-01-05T20:57:34.339Z,0.00
2018-01-05T20:59:27.278Z,0.00
2018-01-05T21:00:27.252Z,0.00
2018-01-05T21:02:20.240Z,0.00
2018-01-05T21:03:20.185Z,0.00
2018-01-05T21:05:13.146Z,0.00
2018-01-05T21:06:13.219Z,0.00
2018-01-05T21:08:05.945Z,0.00
2018-01-05T21:09:05.927Z,0.00
2018-01-05T21:10:58.785Z,0.00
2018-01-05T21:11:58.695Z,0.00
2018-01-05T21:13:51.667Z,0.00
2018-01-05T21:14:51.635Z,0.00
2018-01-05T21:16:44.679Z,0.00
2018-01-05T21:17:44.570Z,0.00
2018-01-05T21:19:37.786Z,0.00
2018-01-05T21:20:37.727Z,0.00
2018-01-05T21:22:30.706Z,0.00
2018-01-05T21:23:30.666Z,0.00
2018-01-05T21:25:23.664Z,0.00
2018-01-05T21:26:23.641Z,0.00
2018-01-05T21:28:16.473Z,0.00
2018-01-05T21:29:16.436Z,0.00
2018-01-05T21:31:09.430Z,0.00
2018-01-05T21:32:09.399Z,0.00
2018-01-05T21:34:02.353Z,0.00
2018-01-05T21:35:02.330Z,0.00
2018-01-05T21:36:55.507Z,0.00
2018-01-05T21:37:55.309Z,0.00
2018-01-05T21:39:48.275Z,0.00
2018-01-05T21:40:48.244Z,0.00
2018-01-05T21:42:41.079Z,0.00
2018-01-05T21:43:41.025Z,0.00
2018-01-05T21:45:33.973Z,0.00
2018-01-05T21:46:33.945Z,0.00
2018-01-05T21:48:26.901Z,0.00
2018-01-05T21:49:26.774Z,0.00
2018-01-05T21:51:19.754Z,0.00
2018-01-05T21:52:19.721Z,0.00
2018-01-05T21:54:12.573Z,0.00
2018-01-05T21:55:12.528Z,0.00
2018-01-05T21:57:05.500Z,0.00
2018-01-05T21:58:05.455Z,0.00
2018-01-05T21:59:58.299Z,0.00
2018-01-05T22:00:58.246Z,0.00
2018-01-05T22:02:51.234Z,0.00
2018-01-05T22:03:51.205Z,0.00
2018-01-05T22:05:44.234Z,0.00
2018-01-05T22:06:44.163Z,0.00
2018-01-05T22:08:37.344Z,0.00
2018-01-05T22:09:37.215Z,0.00
2018-01-05T22:11:30.209Z,0.00
2018-01-05T22:12:30.179Z,0.00
2018-01-05T22:14:23.179Z,0.00
2018-01-05T22:15:23.104Z,0.00
2018-01-05T22:17:15.934Z,0.00
2018-01-05T22:18:15.923Z,0.00
2018-01-05T22:20:08.878Z,0.00
2018-01-05T22:21:08.870Z,0.00
2018-01-05T22:23:01.925Z,0.00
2018-01-05T22:24:01.910Z,0.00
2018-01-05T22:25:54.744Z,0.00
2018-01-05T22:26:54.698Z,0.00
2018-01-05T22:28:47.689Z,0.00
2018-01-05T22:29:47.640Z,0.00
2018-01-05T22:31:40.619Z,0.00
2018-01-05T22:32:40.569Z,0.00
2018-01-05T22:34:33.536Z,0.00
2018-01-05T22:35:33.525Z,4.00
2018-01-05T22:37:26.342Z,4.00
2018-01-05T22:38:26.304Z,4.00
2018-01-05T22:40:19.334Z,4.00
2018-01-05T22:41:19.242Z,4.00
2018-01-05T22:43:12.224Z,4.00
2018-01-05T22:44:12.197Z,4.00
2018-01-05T22:46:05.502Z,4.00
2018-01-05T22:47:05.470Z,4.00
2018-01-05T22:48:58.415Z,4.00
2018-01-05T22:49:58.414Z,4.00
2018-01-05T22:51:51.616Z,4.00
2018-01-05T22:52:51.565Z,4.00
2018-01-05T22:54:44.566Z,4.00
2018-01-05T22:55:44.550Z,4.00
2018-01-05T22:57:37.784Z,4.00
2018-01-05T22:58:37.713Z,4.00
2018-01-05T23:00:30.530Z,0.00
2018-01-05T23:01:30.462Z,0.00
2018-01-05T23:03:23.463Z,0.00
2018-01-05T23:04:23.411Z,0.00
2018-01-05T23:06:16.703Z,0.00
2018-01-05T23:07:16.514Z,0.00
2018-01-05T23:09:09.485Z,0.00
2018-01-05T23:10:09.436Z,0.00
2018-01-05T23:12:02.380Z,0.00
2018-01-05T23:13:02.345Z,0.00
2018-01-05T23:14:55.629Z,0.00
2018-01-05T23:15:55.583Z,0.00
2018-01-05T23:17:48.545Z,0.00
2018-01-05T23:18:48.595Z,0.00
2018-01-05T23:20:41.347Z,0.00
2018-01-05T23:21:41.305Z,0.00
2018-01-05T23:23:34.195Z,0.00
2018-01-05T23:24:34.131Z,0.00
2018-01-05T23:26:27.146Z,0.00
2018-01-05T23:27:27.091Z,0.00
2018-01-05T23:29:19.908Z,0.00
2018-01-05T23:30:19.906Z,0.00
2018-01-05T23:32:12.834Z,0.00
2018-01-05T23:33:12.799Z,0.00
2018-01-05T23:35:05.649Z,4.00
2018-01-05T23:36:05.606Z,0.00
2018-01-05T23:37:58.555Z,0.00
2018-01-05T23:38:58.526Z,0.00
2018-01-05T23:40:51.495Z,0.00
2018-01-05T23:41:51.458Z,0.00
2018-01-05T23:43:44.753Z,0.00
2018-01-05T23:44:44.568Z,4.00
2018-01-05T23:46:37.556Z,0.00
2018-01-05T23:47:37.509Z,0.00
2018-01-05T23:49:30.473Z,4.00
2018-01-05T23:50:30.434Z,4.00
2018-01-05T23:52:23.284Z,4.00
2018-01-05T23:53:23.228Z,0.00
2018-01-05T23:55:16.251Z,0.00
2018-01-05T23:56:16.187Z,0.00
2018-01-05T23:58:09.145Z,4.00
2018-01-05T23:59:09.116Z,0.00
